createdAt,value
2023-03-06T00:01:07.968Z,19.60
2023-03-06T00:03:36.001Z,17.70
2023-03-06T00:06:04.253Z,18.20
2023-03-06T00:08:32.200Z,22.30
2023-03-06T00:11:00.850Z,17.20
2023-03-06T00:13:30.763Z,17.60
2023-03-06T00:16:00.599Z,14.30
2023-03-06T00:18:28.703Z,16.10
2023-03-06T00:20:56.606Z,11.10
2023-03-06T00:23:24.641Z,15.20
2023-03-06T00:25:52.595Z,17.80
2023-03-06T00:28:20.536Z,19.20
2023-03-06T00:30:49.104Z,16.20
2023-03-06T00:33:17.020Z,19.20
2023-03-06T00:35:45.188Z,22.30
2023-03-06T00:38:13.305Z,20.20
2023-03-06T00:40:41.227Z,19.70
2023-03-06T00:43:09.338Z,20.90
2023-03-06T00:45:37.437Z,21.30
2023-03-06T00:48:05.856Z,22.10
2023-03-06T00:50:35.755Z,18.30
2023-03-06T00:53:04.498Z,18.70
2023-03-06T00:55:33.631Z,20.20
2023-03-06T00:58:01.829Z,20.80
2023-03-06T01:00:29.804Z,19.60
2023-03-06T01:02:57.820Z,19.00
2023-03-06T01:05:25.870Z,20.20
2023-03-06T01:07:53.872Z,18.00
2023-03-06T01:10:21.910Z,23.60
2023-03-06T01:12:49.825Z,15.50
2023-03-06T01:15:19.804Z,22.40
2023-03-06T01:17:47.860Z,22.40
2023-03-06T01:20:16.880Z,19.20
2023-03-06T01:22:45.009Z,30.30
2023-03-06T01:25:13.404Z,20.40
2023-03-06T01:27:41.488Z,17.60
2023-03-06T01:30:12.445Z,22.60
2023-03-06T01:32:40.693Z,19.10
2023-03-06T01:35:09.296Z,22.30
2023-03-06T01:37:37.387Z,18.50
2023-03-06T01:40:06.265Z,19.30
2023-03-06T01:42:34.490Z,22.00
2023-03-06T01:45:11.479Z,26.20
2023-03-06T01:47:39.452Z,15.80
2023-03-06T01:50:08.541Z,23.90
2023-03-06T01:52:44.806Z,17.90
2023-03-06T01:55:15.248Z,26.10
2023-03-06T01:57:45.376Z,22.40
2023-03-06T02:00:15.609Z,21.40
2023-03-06T02:02:51.933Z,25.40
2023-03-06T02:05:20.136Z,22.60
2023-03-06T02:07:48.255Z,19.60
2023-03-06T02:10:16.404Z,20.20
2023-03-06T02:12:45.577Z,21.40
2023-03-06T02:15:14.858Z,24.60
2023-03-06T02:17:44.367Z,23.00
2023-03-06T02:20:14.602Z,23.50
2023-03-06T02:22:50.232Z,24.60
2023-03-06T02:25:37.958Z,23.90
2023-03-06T02:28:07.290Z,17.10
2023-03-06T02:30:35.560Z,20.30
2023-03-06T02:33:04.126Z,14.80
2023-03-06T02:35:35.517Z,20.20
2023-03-06T02:38:06.554Z,16.10
2023-03-06T02:40:36.946Z,24.70
2023-03-06T02:43:05.427Z,27.30
2023-03-06T02:45:40.939Z,26.40
2023-03-06T02:48:09.986Z,21.40
2023-03-06T02:50:38.226Z,20.40
2023-03-06T02:53:06.717Z,25.00
2023-03-06T02:55:35.088Z,21.80
2023-03-06T02:58:03.508Z,21.50
2023-03-06T03:00:32.174Z,22.90
2023-03-06T03:03:02.578Z,25.40
2023-03-06T03:05:31.603Z,22.90
2023-03-06T03:08:06.006Z,21.60
2023-03-06T03:10:34.603Z,22.30
2023-03-06T03:13:02.672Z,22.60
2023-03-06T03:15:31.031Z,24.10
2023-03-06T03:17:59.042Z,27.60
2023-03-06T03:20:27.021Z,28.70
2023-03-06T03:22:56.036Z,24.10
2023-03-06T03:25:25.215Z,24.50
2023-03-06T03:27:54.722Z,26.20
2023-03-06T03:30:23.211Z,28.70
2023-03-06T03:32:51.217Z,23.20
2023-03-06T03:35:19.195Z,24.60
2023-03-06T03:37:47.682Z,22.00
2023-03-06T03:40:15.855Z,27.30
2023-03-06T03:42:43.876Z,32.50
2023-03-06T03:45:12.345Z,27.50
2023-03-06T03:47:41.768Z,26.80
2023-03-06T03:50:10.766Z,24.70
2023-03-06T03:52:38.943Z,30.40
2023-03-06T03:55:07.798Z,25.10
2023-03-06T03:57:35.890Z,24.40
2023-03-06T04:00:04.215Z,26.90
2023-03-06T04:02:50.934Z,29.20
2023-03-06T04:05:28.108Z,25.60
2023-03-06T04:07:56.384Z,30.70
2023-03-06T04:10:24.364Z,25.20
2023-03-06T04:12:52.759Z,31.40
2023-03-06T04:15:21.010Z,24.60
2023-03-06T04:17:49.331Z,30.80
2023-03-06T04:20:19.791Z,26.10
2023-03-06T04:22:48.083Z,30.00
2023-03-06T04:25:16.633Z,29.00
2023-03-06T04:27:44.921Z,24.20
2023-03-06T04:30:13.443Z,26.90
2023-03-06T04:32:41.949Z,29.10
2023-03-06T04:35:10.750Z,24.90
2023-03-06T04:37:45.178Z,26.30
2023-03-06T04:40:28.324Z,22.60
2023-03-06T04:42:57.632Z,32.90
2023-03-06T04:45:26.647Z,34.50
2023-03-06T04:47:54.896Z,36.10
2023-03-06T04:50:23.259Z,37.60
2023-03-06T04:52:51.761Z,43.30
2023-03-06T04:55:19.950Z,39.00
2023-03-06T04:57:47.920Z,35.90
2023-03-06T05:00:22.878Z,31.80
2023-03-06T05:02:51.088Z,31.30
2023-03-06T05:05:19.276Z,30.80
2023-03-06T05:07:47.275Z,29.90
2023-03-06T05:10:16.708Z,37.60
2023-03-06T05:12:44.672Z,36.80
2023-03-06T05:15:12.932Z,39.70
2023-03-06T05:17:41.176Z,38.00
2023-03-06T05:20:09.973Z,41.00
2023-03-06T05:22:37.966Z,38.60
2023-03-06T05:25:06.632Z,33.10
2023-03-06T05:27:34.766Z,29.80
2023-03-06T05:30:02.766Z,37.80
2023-03-06T05:32:30.923Z,42.40
2023-03-06T05:35:01.026Z,41.80
2023-03-06T05:37:29.070Z,44.50
2023-03-06T05:39:57.364Z,33.50
2023-03-06T05:42:27.542Z,31.80
2023-03-06T05:44:56.773Z,33.30
2023-03-06T05:47:24.857Z,37.20
2023-03-06T05:49:52.778Z,31.90
2023-03-06T05:52:20.929Z,30.10
2023-03-06T05:54:53.403Z,34.30
2023-03-06T05:57:22.788Z,33.20
2023-03-06T05:59:51.327Z,31.20
2023-03-06T06:02:19.542Z,30.50
2023-03-06T06:04:47.837Z,30.00
2023-03-06T06:07:16.184Z,28.70
2023-03-06T06:09:45.815Z,30.20
2023-03-06T06:12:13.974Z,30.50
2023-03-06T06:14:42.037Z,31.80
2023-03-06T06:17:12.753Z,31.00
2023-03-06T06:19:42.225Z,22.10
2023-03-06T06:22:10.208Z,30.60
2023-03-06T06:24:38.216Z,27.00
2023-03-06T06:27:06.374Z,31.00
2023-03-06T06:29:36.015Z,36.00
2023-03-06T06:32:04.280Z,29.40
2023-03-06T06:34:32.327Z,28.40
2023-03-06T06:37:00.264Z,27.00
2023-03-06T06:39:29.629Z,26.10
2023-03-06T06:42:16.085Z,26.50
2023-03-06T06:44:45.516Z,25.60
2023-03-06T06:47:28.911Z,26.70
2023-03-06T06:49:57.160Z,24.10
2023-03-06T06:52:26.684Z,24.70
2023-03-06T06:54:54.858Z,30.00
2023-03-06T06:57:22.894Z,30.20
2023-03-06T06:59:53.352Z,25.40
2023-03-06T07:02:22.012Z,33.60
2023-03-06T07:05:03.039Z,28.30
2023-03-06T07:07:36.687Z,29.20
2023-03-06T07:10:07.949Z,29.50
2023-03-06T07:12:36.053Z,24.50
2023-03-06T07:15:05.407Z,23.90
2023-03-06T07:17:35.156Z,29.00
2023-03-06T07:20:05.025Z,28.90
2023-03-06T07:22:41.572Z,28.50
2023-03-06T07:25:16.706Z,30.90
2023-03-06T07:27:51.107Z,30.80
2023-03-06T07:30:22.664Z,32.80
2023-03-06T07:32:55.764Z,35.60
2023-03-06T07:35:23.967Z,30.70
2023-03-06T07:37:52.436Z,31.30
2023-03-06T07:40:20.927Z,32.50
2023-03-06T07:42:49.323Z,34.70
2023-03-06T07:45:20.162Z,38.00
2023-03-06T07:47:50.476Z,36.50
2023-03-06T07:50:19.021Z,34.20
2023-03-06T07:52:48.112Z,36.30
2023-03-06T07:55:16.186Z,37.40
2023-03-06T07:57:44.882Z,37.80
2023-03-06T08:00:15.017Z,32.50
2023-03-06T08:02:43.425Z,33.50
2023-03-06T08:05:13.876Z,37.50
2023-03-06T08:07:43.224Z,28.10
2023-03-06T08:10:15.626Z,29.10
2023-03-06T08:12:43.749Z,27.90
2023-03-06T08:15:12.435Z,30.80
2023-03-06T08:17:40.646Z,28.80
2023-03-06T08:20:10.770Z,24.80
2023-03-06T08:22:38.901Z,25.80
2023-03-06T08:25:07.433Z,27.80
2023-03-06T08:27:35.580Z,21.50
2023-03-06T08:30:05.939Z,28.40
2023-03-06T08:32:37.315Z,22.50
2023-03-06T08:35:05.675Z,21.20
2023-03-06T08:37:33.725Z,25.10
2023-03-06T08:40:04.785Z,23.40
2023-03-06T08:42:33.138Z,26.20
2023-03-06T08:45:01.154Z,29.10
2023-03-06T08:47:29.228Z,28.90
2023-03-06T08:50:00.523Z,29.00
2023-03-06T08:52:28.850Z,21.80
2023-03-06T08:54:58.131Z,28.80
2023-03-06T08:57:26.362Z,24.40
2023-03-06T08:59:54.438Z,28.40
2023-03-06T09:02:22.587Z,36.30
2023-03-06T09:04:50.783Z,29.50
2023-03-06T09:07:18.793Z,31.50
2023-03-06T09:09:46.844Z,29.20
2023-03-06T09:12:14.817Z,32.10
2023-03-06T09:14:42.791Z,36.50
2023-03-06T09:17:10.794Z,32.00
2023-03-06T09:19:38.888Z,31.70
2023-03-06T09:22:06.951Z,30.40
2023-03-06T09:24:35.189Z,35.60
2023-03-06T09:27:03.440Z,33.20
2023-03-06T09:29:31.472Z,33.80
2023-03-06T09:31:59.437Z,33.60
2023-03-06T09:34:27.827Z,34.50
2023-03-06T09:36:57.676Z,31.90
2023-03-06T09:39:26.478Z,32.80
2023-03-06T09:41:55.292Z,26.90
2023-03-06T09:44:32.785Z,34.40
2023-03-06T09:47:24.116Z,40.10
2023-03-06T09:49:58.636Z,32.30
2023-03-06T09:52:41.486Z,32.10
2023-03-06T09:55:13.066Z,34.20
2023-03-06T09:58:07.161Z,48.50
2023-03-06T10:01:25.304Z,33.50
2023-03-06T10:04:05.273Z,37.40
2023-03-06T10:06:53.425Z,34.90
2023-03-06T10:09:47.468Z,31.70
2023-03-06T10:12:25.876Z,32.50
2023-03-06T10:15:08.528Z,33.20
2023-03-06T10:17:37.971Z,31.80
2023-03-06T10:20:23.150Z,30.50
2023-03-06T10:23:26.619Z,29.40
2023-03-06T10:26:00.206Z,28.80
2023-03-06T10:28:36.377Z,25.10
2023-03-06T10:31:24.113Z,25.80
2023-03-06T10:33:59.363Z,19.60
2023-03-06T10:36:28.413Z,25.30
2023-03-06T10:38:57.727Z,19.80
2023-03-06T10:41:28.187Z,23.50
2023-03-06T10:44:05.489Z,22.40
2023-03-06T10:46:34.622Z,26.10
2023-03-06T10:49:06.340Z,24.10
2023-03-06T10:51:35.895Z,19.00
2023-03-06T10:54:21.853Z,20.80
2023-03-06T10:56:49.822Z,23.40
2023-03-06T10:59:29.503Z,19.80
2023-03-06T11:01:59.156Z,18.90
2023-03-06T11:04:31.913Z,22.00
2023-03-06T11:07:21.993Z,20.20
2023-03-06T11:09:59.354Z,26.20
2023-03-06T11:12:29.288Z,16.70
2023-03-06T11:15:17.946Z,19.80
2023-03-06T11:18:04.383Z,16.90
2023-03-06T11:20:49.917Z,17.30
2023-03-06T11:23:38.604Z,15.40
2023-03-06T11:26:16.018Z,20.50
2023-03-06T11:29:02.423Z,23.40
2023-03-06T11:31:38.632Z,19.90
2023-03-06T11:34:12.766Z,24.80
2023-03-06T11:36:52.093Z,23.70
2023-03-06T11:39:38.377Z,21.10
2023-03-06T11:42:09.208Z,24.10
2023-03-06T11:44:52.299Z,21.90
2023-03-06T11:47:29.732Z,20.80
2023-03-06T11:50:07.066Z,16.40
2023-03-06T11:52:51.198Z,16.60
2023-03-06T11:55:50.377Z,16.60
2023-03-06T11:58:40.364Z,16.70
2023-03-06T12:01:33.014Z,19.70
2023-03-06T12:04:11.973Z,19.80
2023-03-06T12:06:51.903Z,19.10
2023-03-06T12:09:27.655Z,24.70
2023-03-06T12:11:55.639Z,22.30
2023-03-06T12:14:36.477Z,20.70
2023-03-06T12:17:15.604Z,22.20
2023-03-06T12:19:50.437Z,26.40
2023-03-06T12:23:15.456Z,21.10
2023-03-06T12:25:49.147Z,23.70
2023-03-06T12:28:50.501Z,22.70
2023-03-06T12:31:43.094Z,25.00
2023-03-06T12:34:20.239Z,20.10
2023-03-06T12:37:09.650Z,19.40
2023-03-06T12:39:47.405Z,23.40
2023-03-06T12:42:38.825Z,19.70
2023-03-06T12:45:34.148Z,17.00
2023-03-06T12:48:02.188Z,19.10
2023-03-06T12:50:31.536Z,23.40
2023-03-06T12:53:13.613Z,23.90
2023-03-06T12:55:44.250Z,21.30
2023-03-06T12:58:30.946Z,22.30
2023-03-06T13:01:11.488Z,26.80
2023-03-06T13:04:18.249Z,24.30
2023-03-06T13:06:58.365Z,26.00
2023-03-06T13:09:29.418Z,25.40
2023-03-06T13:12:30.051Z,21.60
2023-03-06T13:15:01.603Z,23.70
2023-03-06T13:17:34.752Z,27.60
2023-03-06T13:20:14.817Z,20.20
2023-03-06T13:22:43.796Z,27.10
2023-03-06T13:25:21.118Z,19.10
2023-03-06T13:27:55.179Z,22.90
2023-03-06T13:30:42.529Z,23.00
2023-03-06T13:33:33.179Z,18.90
2023-03-06T13:36:23.307Z,38.20
2023-03-06T13:38:51.786Z,41.30
2023-03-06T13:41:22.769Z,27.00
2023-03-06T13:43:52.393Z,27.70
2023-03-06T13:46:26.244Z,21.70
2023-03-06T13:49:09.573Z,28.20
2023-03-06T13:52:04.545Z,21.40
2023-03-06T13:54:32.527Z,25.10
2023-03-06T13:57:38.312Z,24.70
2023-03-06T14:00:30.328Z,27.00
2023-03-06T14:03:25.398Z,24.60
2023-03-06T14:05:53.497Z,29.70
2023-03-06T14:08:30.982Z,30.60
2023-03-06T14:11:03.203Z,35.90
2023-03-06T14:13:46.634Z,38.20
2023-03-06T14:16:27.016Z,30.40
2023-03-06T14:18:57.034Z,24.10
2023-03-06T14:21:35.513Z,19.00
2023-03-06T14:24:04.468Z,20.00
2023-03-06T14:26:34.078Z,20.70
2023-03-06T14:29:03.132Z,23.40
2023-03-06T14:31:37.611Z,22.00
2023-03-06T14:34:09.247Z,22.50
2023-03-06T14:36:43.588Z,18.40
2023-03-06T14:39:23.447Z,20.10
2023-03-06T14:41:51.555Z,21.80
2023-03-06T14:44:24.352Z,20.00
2023-03-06T14:46:56.269Z,20.20
2023-03-06T14:49:25.641Z,23.60
2023-03-06T14:51:55.567Z,23.70
2023-03-06T14:54:31.851Z,22.60
2023-03-06T14:57:06.844Z,17.80
2023-03-06T14:59:44.789Z,13.50
2023-03-06T15:02:17.914Z,22.00
2023-03-06T15:04:47.874Z,14.20
2023-03-06T15:07:17.985Z,15.10
2023-03-06T15:09:48.982Z,15.60
2023-03-06T15:12:19.996Z,19.20
2023-03-06T15:14:59.305Z,14.20
2023-03-06T15:17:27.252Z,20.20
2023-03-06T15:19:56.846Z,24.20
2023-03-06T15:22:31.988Z,17.00
2023-03-06T15:25:27.951Z,20.80
2023-03-06T15:28:03.383Z,20.10
2023-03-06T15:30:33.694Z,20.50
2023-03-06T15:33:20.003Z,23.50
2023-03-06T15:36:04.219Z,17.30
2023-03-06T15:38:40.127Z,18.00
2023-03-06T15:41:23.964Z,23.40
2023-03-06T15:43:52.046Z,22.40
2023-03-06T15:46:20.140Z,24.60
2023-03-06T15:49:07.323Z,26.00
2023-03-06T15:51:35.512Z,23.70
2023-03-06T15:54:11.820Z,20.30
2023-03-06T15:56:42.590Z,23.80
2023-03-06T15:59:21.683Z,24.40
2023-03-06T16:01:50.161Z,23.90
2023-03-06T16:04:18.810Z,26.60
2023-03-06T16:06:47.065Z,29.80
2023-03-06T16:09:15.490Z,25.30
2023-03-06T16:11:47.512Z,31.80
2023-03-06T16:14:24.209Z,33.80
2023-03-06T16:16:54.414Z,29.60
2023-03-06T16:19:27.418Z,40.50
2023-03-06T16:21:56.747Z,35.10
2023-03-06T16:24:26.429Z,30.60
2023-03-06T16:26:55.087Z,27.90
2023-03-06T16:29:27.167Z,26.10
2023-03-06T16:31:56.568Z,24.50
2023-03-06T16:34:24.742Z,28.60
2023-03-06T16:36:52.817Z,30.50
2023-03-06T16:39:22.158Z,31.40
2023-03-06T16:41:50.279Z,30.30
2023-03-06T16:44:19.160Z,30.40
2023-03-06T16:46:48.380Z,31.50
2023-03-06T16:49:20.700Z,37.40
2023-03-06T16:51:51.394Z,38.10
2023-03-06T16:54:20.140Z,39.80
2023-03-06T16:56:48.261Z,56.80
2023-03-06T16:59:21.441Z,61.00
2023-03-06T17:01:49.392Z,57.00
2023-03-06T17:04:17.409Z,50.40
2023-03-06T17:06:45.431Z,55.60
2023-03-06T17:09:15.398Z,46.40
2023-03-06T17:11:46.903Z,47.70
2023-03-06T17:14:15.063Z,57.40
2023-03-06T17:16:43.235Z,52.00
2023-03-06T17:19:14.530Z,64.40
2023-03-06T17:21:43.470Z,40.00
2023-03-06T17:24:11.893Z,42.10
2023-03-06T17:26:40.390Z,44.90
2023-03-06T17:29:09.884Z,40.40
2023-03-06T17:31:37.964Z,45.00
2023-03-06T17:34:08.057Z,57.60
2023-03-06T17:36:36.108Z,87.10
2023-03-06T17:39:04.537Z,70.10
2023-03-06T17:41:34.316Z,52.10
2023-03-06T17:44:02.346Z,62.00
2023-03-06T17:46:32.307Z,48.00
2023-03-06T17:49:00.781Z,35.30
2023-03-06T17:51:29.056Z,33.60
2023-03-06T17:53:57.593Z,28.40
2023-03-06T17:56:26.118Z,31.80
2023-03-06T17:58:54.157Z,32.80
2023-03-06T18:01:23.899Z,36.20
2023-03-06T18:03:51.950Z,32.00
2023-03-06T18:06:21.175Z,29.80
2023-03-06T18:08:52.247Z,35.10
2023-03-06T18:11:21.178Z,33.20
2023-03-06T18:13:49.236Z,33.60
2023-03-06T18:16:19.207Z,35.70
2023-03-06T18:18:47.481Z,31.90
2023-03-06T18:21:16.948Z,34.40
2023-03-06T18:23:45.060Z,34.70
2023-03-06T18:26:18.854Z,48.40
2023-03-06T18:28:48.756Z,65.40
2023-03-06T18:31:21.414Z,65.70
2023-03-06T18:33:49.588Z,61.90
2023-03-06T18:36:17.862Z,59.10
2023-03-06T18:38:46.055Z,43.90
2023-03-06T18:41:14.107Z,46.70
2023-03-06T18:43:42.189Z,48.70
2023-03-06T18:46:11.010Z,43.80
2023-03-06T18:48:39.112Z,48.80
2023-03-06T18:51:08.781Z,50.00
2023-03-06T18:53:37.149Z,49.40
2023-03-06T18:56:05.494Z,46.80
2023-03-06T18:58:33.526Z,46.10
2023-03-06T19:01:06.582Z,45.60
2023-03-06T19:03:34.808Z,45.30
2023-03-06T19:06:20.679Z,36.00
2023-03-06T19:08:48.816Z,45.40
2023-03-06T19:11:18.162Z,44.30
2023-03-06T19:13:46.080Z,43.40
2023-03-06T19:16:18.798Z,39.80
2023-03-06T19:18:46.927Z,39.50
2023-03-06T19:21:16.931Z,48.00
2023-03-06T19:23:45.082Z,42.30
2023-03-06T19:26:13.082Z,61.70
2023-03-06T19:28:41.799Z,54.10
2023-03-06T19:31:14.114Z,48.20
2023-03-06T19:33:42.900Z,44.30
2023-03-06T19:36:12.537Z,34.80
2023-03-06T19:38:40.871Z,42.50
2023-03-06T19:41:13.887Z,51.80
2023-03-06T19:43:42.509Z,44.10
2023-03-06T19:46:14.120Z,60.20
2023-03-06T19:48:42.619Z,59.10
2023-03-06T19:51:11.385Z,57.70
2023-03-06T19:53:39.948Z,53.50
2023-03-06T19:56:19.382Z,53.70
2023-03-06T19:58:47.611Z,48.00
2023-03-06T20:01:17.878Z,49.40
2023-03-06T20:03:46.467Z,52.00
2023-03-06T20:06:16.482Z,55.40
2023-03-06T20:08:50.759Z,54.30
2023-03-06T20:11:20.787Z,59.70
2023-03-06T20:13:49.159Z,59.90
2023-03-06T20:16:17.671Z,61.40
2023-03-06T20:18:45.776Z,68.10
2023-03-06T20:21:14.203Z,56.90
2023-03-06T20:23:42.784Z,63.10
2023-03-06T20:26:12.831Z,52.70
2023-03-06T20:28:41.407Z,56.20
2023-03-06T20:31:16.611Z,57.50
2023-03-06T20:33:48.989Z,60.00
2023-03-06T20:36:18.981Z,48.90
2023-03-06T20:38:47.267Z,40.90
2023-03-06T20:41:22.665Z,49.60
2023-03-06T20:43:50.633Z,52.70
2023-03-06T20:46:19.199Z,53.30
2023-03-06T20:48:49.140Z,56.70
2023-03-06T20:51:28.821Z,56.50
2023-03-06T20:53:57.090Z,56.20
2023-03-06T20:56:26.830Z,47.50
2023-03-06T20:58:55.211Z,47.90
2023-03-06T21:01:25.456Z,56.50
2023-03-06T21:03:53.763Z,46.00
2023-03-06T21:06:21.920Z,48.00
2023-03-06T21:08:50.135Z,49.60
2023-03-06T21:11:18.505Z,47.60
2023-03-06T21:13:46.529Z,44.50
2023-03-06T21:16:16.741Z,34.60
2023-03-06T21:18:44.846Z,47.10
2023-03-06T21:21:18.601Z,58.40
2023-03-06T21:23:47.407Z,58.60
2023-03-06T21:26:20.190Z,53.30
2023-03-06T21:28:48.145Z,47.20
2023-03-06T21:31:17.280Z,57.20
2023-03-06T21:33:45.516Z,54.00
2023-03-06T21:36:13.624Z,56.80
2023-03-06T21:38:41.556Z,58.10
2023-03-06T21:41:13.719Z,49.90
2023-03-06T21:43:41.889Z,53.30
2023-03-06T21:46:10.522Z,57.80
2023-03-06T21:48:38.626Z,53.50
2023-03-06T21:51:08.359Z,49.50
2023-03-06T21:53:36.613Z,53.20
2023-03-06T21:56:04.963Z,53.10
2023-03-06T21:58:33.078Z,48.80
2023-03-06T22:01:01.083Z,50.50
2023-03-06T22:03:29.124Z,48.70
2023-03-06T22:05:57.120Z,55.50
2023-03-06T22:08:25.248Z,57.50
2023-03-06T22:10:53.619Z,52.50
2023-03-06T22:13:22.381Z,56.50
2023-03-06T22:15:51.828Z,55.70
2023-03-06T22:18:19.787Z,59.60
2023-03-06T22:20:47.797Z,53.30
2023-03-06T22:23:15.716Z,63.50
2023-03-06T22:25:43.796Z,59.40
2023-03-06T22:28:13.183Z,63.10
2023-03-06T22:30:41.145Z,56.60
2023-03-06T22:33:09.105Z,57.20
2023-03-06T22:35:37.166Z,57.10
2023-03-06T22:38:05.176Z,53.50
2023-03-06T22:40:33.160Z,61.40
2023-03-06T22:43:01.195Z,63.50
2023-03-06T22:45:29.106Z,61.20
2023-03-06T22:48:10.157Z,62.00
2023-03-06T22:50:38.912Z,53.20
2023-03-06T22:53:06.885Z,56.70
2023-03-06T22:55:35.239Z,59.70
2023-03-06T22:58:03.421Z,62.90
2023-03-06T23:00:31.350Z,61.30
2023-03-06T23:02:59.326Z,64.40
2023-03-06T23:05:29.368Z,49.60
2023-03-06T23:07:57.500Z,59.50
2023-03-06T23:10:25.554Z,49.90
2023-03-06T23:13:12.097Z,55.40
2023-03-06T23:16:02.491Z,55.40
2023-03-06T23:18:51.004Z,53.90
2023-03-06T23:21:37.663Z,51.10
2023-03-06T23:24:24.176Z,51.90
2023-03-06T23:26:52.169Z,58.10
2023-03-06T23:29:20.107Z,48.50
2023-03-06T23:31:48.056Z,54.60
2023-03-06T23:34:15.987Z,45.40
2023-03-06T23:36:43.945Z,61.00
2023-03-06T23:39:12.290Z,51.40
2023-03-06T23:41:40.685Z,60.80
2023-03-06T23:44:08.808Z,67.30
2023-03-06T23:46:36.791Z,64.70
2023-03-06T23:49:04.933Z,66.50
2023-03-06T23:51:33.865Z,59.30
2023-03-06T23:54:01.848Z,57.60
2023-03-06T23:56:29.965Z,49.10
2023-03-06T23:58:57.933Z,55.70
